Time,TemperatureF,DewpointF,PressureIn,WindDirection,WindDirectionDegrees,WindSpeedMPH,WindSpeedGustMPH,Humidity,HourlyPrecipIn,Conditions,Clouds,dailyrainin,SoftwareType,DateUTC
2013-08-09 00:00:00,63.4,49.0,29.62,West,267,0.0,1.0,60,0.00,,,0.00,weatherlink.com 1.10,2013-08-09 07:00:00,
2013-08-09 00:15:00,62.4,49.0,29.63,West,267,0.0,1.0,62,0.00,,,0.00,weatherlink.com 1.10,2013-08-09 07:15:00,
2013-08-09 00:30:00,61.4,49.0,29.63,West,267,0.0,0.0,65,0.00,,,0.00,weatherlink.com 1.10,2013-08-09 07:30:00,
2013-08-09 00:45:00,60.6,50.0,29.63,West,267,0.0,0.0,68,0.00,,,0.00,weatherlink.com 1.10,2013-08-09 07:45:00,
2013-08-09 01:00:00,59.8,50.0,29.63,West,267,0.0,0.0,70,0.00,,,0.00,weatherlink.com 1.10,2013-08-09 08:00:00,
2013-08-09 01:15:00,59.2,50.0,29.63,West,267,0.0,0.0,72,0.00,,,0.00,weatherlink.com 1.10,2013-08-09 08:15:00,
2013-08-09 01:30:00,58.5,51.0,29.63,West,267,0.0,0.0,75,0.00,,,0.00,weatherlink.com 1.10,2013-08-09 08:30:00,
2013-08-09 01:45:00,57.6,50.0,29.63,West,267,0.0,0.0,76,0.00,,,0.00,weatherlink.com 1.10,2013-08-09 08:45:00,
2013-08-09 02:00:00,56.8,50.0,29.63,SSE,153,0.0,0.0,77,0.00,,,0.00,weatherlink.com 1.10,2013-08-09 09:00:00,
2013-08-09 02:15:00,56.3,50.0,29.63,SSE,153,0.0,0.0,80,0.00,,,0.00,weatherlink.com 1.10,2013-08-09 09:15:00,
2013-08-09 02:30:00,55.9,50.0,29.63,SSE,153,0.0,0.0,81,0.00,,,0.00,weatherlink.com 1.10,2013-08-09 09:30:00,
2013-08-09 02:45:00,55.5,50.0,29.64,SSE,153,0.0,1.0,82,0.00,,,0.00,weatherlink.com 1.10,2013-08-09 09:45:00,
2013-08-09 03:00:00,55.2,50.0,29.63,SSE,153,0.0,0.0,83,0.00,,,0.00,weatherlink.com 1.10,2013-08-09 10:00:00,
2013-08-09 03:15:00,54.8,50.0,29.63,SSE,153,0.0,1.0,84,0.00,,,0.00,weatherlink.com 1.10,2013-08-09 10:15:00,
2013-08-09 03:30:00,54.5,50.0,29.64,SSE,153,0.0,0.0,85,0.00,,,0.00,weatherlink.com 1.10,2013-08-09 10:30:00,
2013-08-09 03:45:00,54.1,50.0,29.64,SSE,153,0.0,1.0,86,0.00,,,0.00,weatherlink.com 1.10,2013-08-09 10:45:00,
2013-08-09 04:00:00,53.6,50.0,29.64,SSE,153,0.0,0.0,87,0.00,,,0.00,weatherlink.com 1.10,2013-08-09 11:00:00,
2013-08-09 04:15:00,53.4,50.0,29.64,SSE,153,0.0,0.0,87,0.00,,,0.00,weatherlink.com 1.10,2013-08-09 11:15:00,
2013-08-09 04:30:00,52.9,50.0,29.65,SSE,153,0.0,1.0,88,0.00,,,0.00,weatherlink.com 1.10,2013-08-09 11:30:00,
2013-08-09 04:45:00,52.6,50.0,29.65,SSE,153,0.0,0.0,89,0.00,,,0.00,weatherlink.com 1.10,2013-08-09 11:45:00,
2013-08-09 05:00:00,52.2,49.0,29.65,SSE,153,0.0,0.0,89,0.00,,,0.00,weatherlink.com 1.10,2013-08-09 12:00:00,
2013-08-09 05:16:00,51.8,49.0,29.66,SSE,153,0.0,0.0,90,0.00,,,0.00,weatherlink.com 1.10,2013-08-09 12:16:00,
2013-08-09 05:31:00,51.7,49.0,29.66,SSE,153,0.0,1.0,91,0.00,,,0.00,weatherlink.com 1.10,2013-08-09 12:31:00,
2013-08-09 05:46:00,51.6,49.0,29.67,SSE,153,0.0,0.0,92,0.00,,,0.00,weatherlink.com 1.10,2013-08-09 12:46:00,
2013-08-09 06:01:00,51.5,49.0,29.68,SSE,153,0.0,0.0,92,0.00,,,0.00,weatherlink.com 1.10,2013-08-09 13:01:00,
2013-08-09 06:16:00,52.3,50.0,29.68,SSE,153,0.0,0.0,92,0.00,,,0.00,weatherlink.com 1.10,2013-08-09 13:16:00,
2013-08-09 06:31:00,56.0,52.0,29.68,SSE,153,0.0,0.0,87,0.00,,,0.00,weatherlink.com 1.10,2013-08-09 13:31:00,
2013-08-09 06:46:00,59.8,54.0,29.69,NNE,15,0.0,0.0,81,0.00,,,0.00,weatherlink.com 1.10,2013-08-09 13:46:00,
2013-08-09 07:01:00,64.1,53.0,29.69,NNE,15,0.0,0.0,67,0.00,,,0.00,weatherlink.com 1.10,2013-08-09 14:01:00,
2013-08-09 07:16:00,68.0,53.0,29.69,NNE,15,0.0,0.0,60,0.00,,,0.00,weatherlink.com 1.10,2013-08-09 14:16:00,
2013-08-09 07:31:00,70.9,53.0,29.70,NNE,15,0.0,0.0,54,0.00,,,0.00,weatherlink.com 1.10,2013-08-09 14:31:00,
2013-08-09 07:46:00,73.1,55.0,29.70,NNE,15,0.0,1.0,53,0.00,,,0.00,weatherlink.com 1.10,2013-08-09 14:46:00,
2013-08-09 08:01:00,75.7,55.0,29.69,NNE,15,0.0,1.0,49,0.00,,,0.00,weatherlink.com 1.10,2013-08-09 15:01:00,
2013-08-09 08:16:00,76.7,53.0,29.69,WNW,302,1.0,3.0,44,0.00,,,0.00,weatherlink.com 1.10,2013-08-09 15:16:00,
2013-08-09 08:31:00,78.2,49.0,29.69,WNW,302,1.0,3.0,36,0.00,,,0.00,weatherlink.com 1.10,2013-08-09 15:31:00,
2013-08-09 08:46:00,79.6,49.0,29.68,WNW,302,0.0,3.0,34,0.00,,,0.00,weatherlink.com 1.10,2013-08-09 15:46:00,
2013-08-09 09:01:00,81.4,50.0,29.68,WNW,302,1.0,2.0,33,0.00,,,0.00,weatherlink.com 1.10,2013-08-09 16:01:00,
2013-08-09 09:16:00,83.6,48.0,29.68,WNW,302,0.0,2.0,29,0.00,,,0.00,weatherlink.com 1.10,2013-08-09 16:16:00,
2013-08-09 09:31:00,85.4,48.0,29.68,NW,304,1.0,1.0,27,0.00,,,0.00,weatherlink.com 1.10,2013-08-09 16:31:00,
2013-08-09 09:46:00,86.7,47.0,29.68,WNW,290,0.0,2.0,25,0.00,,,0.00,weatherlink.com 1.10,2013-08-09 16:46:00,
2013-08-09 10:01:00,86.9,50.0,29.68,WNW,293,0.0,2.0,28,0.00,,,0.00,weatherlink.com 1.10,2013-08-09 17:01:00,
2013-08-09 10:17:00,88.6,53.0,29.68,SW,217,1.0,4.0,29,0.00,,,0.00,weatherlink.com 1.10,2013-08-09 17:17:00,
2013-08-09 10:32:00,89.8,52.0,29.67,WSW,242,1.0,3.0,27,0.00,,,0.00,weatherlink.com 1.10,2013-08-09 17:32:00,
2013-08-09 10:47:00,90.7,48.0,29.67,ESE,115,2.0,3.0,23,0.00,,,0.00,weatherlink.com 1.10,2013-08-09 17:47:00,
2013-08-09 11:02:00,91.0,50.0,29.66,SE,130,2.0,4.0,24,0.00,,,0.00,weatherlink.com 1.10,2013-08-09 18:02:00,
2013-08-09 11:17:00,91.7,44.0,29.65,ESE,119,5.0,5.0,19,0.00,,,0.00,weatherlink.com 1.10,2013-08-09 18:17:00,
2013-08-09 11:32:00,92.3,46.0,29.65,East,99,1.0,9.0,20,0.00,,,0.00,weatherlink.com 1.10,2013-08-09 18:32:00,
2013-08-09 11:47:00,93.1,47.0,29.64,East,92,2.0,7.0,20,0.00,,,0.00,weatherlink.com 1.10,2013-08-09 18:47:00,
2013-08-09 12:02:00,94.0,47.0,29.64,East,98,5.0,10.0,20,0.00,,,0.00,weatherlink.com 1.10,2013-08-09 19:02:00,
2013-08-09 12:17:00,94.7,49.0,29.63,East,97,1.0,12.0,21,0.00,,,0.00,weatherlink.com 1.10,2013-08-09 19:17:00,
2013-08-09 12:32:00,95.2,45.0,29.63,ESE,107,2.0,12.0,18,0.00,,,0.00,weatherlink.com 1.10,2013-08-09 19:32:00,
2013-08-09 12:47:00,94.7,40.0,29.62,SE,140,2.0,11.0,15,0.00,,,0.00,weatherlink.com 1.10,2013-08-09 19:47:00,
2013-08-09 13:02:00,95.5,49.0,29.62,SE,146,5.0,10.0,20,0.00,,,0.00,weatherlink.com 1.10,2013-08-09 20:02:00,
2013-08-09 13:17:00,96.0,45.0,29.62,South,190,4.0,9.0,17,0.00,,,0.00,weatherlink.com 1.10,2013-08-09 20:17:00,
2013-08-09 13:32:00,97.4,47.0,29.61,SW,219,5.0,17.0,18,0.00,,,0.00,weatherlink.com 1.10,2013-08-09 20:32:00,
2013-08-09 13:47:00,97.8,43.0,29.60,South,186,9.0,13.0,15,0.00,,,0.00,weatherlink.com 1.10,2013-08-09 20:47:00,
2013-08-09 14:02:00,98.1,41.0,29.60,WNW,283,6.0,18.0,14,0.00,,,0.00,weatherlink.com 1.10,2013-08-09 21:02:00,
2013-08-09 14:17:00,98.4,45.0,29.60,SSW,212,5.0,17.0,16,0.00,,,0.00,weatherlink.com 1.10,2013-08-09 21:17:00,
2013-08-09 14:32:00,98.2,48.0,29.59,SW,215,1.0,17.0,18,0.00,,,0.00,weatherlink.com 1.10,2013-08-09 21:32:00,
2013-08-09 14:47:00,98.7,45.0,29.59,WSW,237,6.0,10.0,16,0.00,,,0.00,weatherlink.com 1.10,2013-08-09 21:47:00,
2013-08-09 15:02:00,98.1,45.0,29.59,ESE,105,7.0,14.0,16,0.00,,,0.00,weatherlink.com 1.10,2013-08-09 22:02:00,
2013-08-09 15:17:00,97.5,47.0,29.59,SW,225,2.0,21.0,18,0.00,,,0.00,weatherlink.com 1.10,2013-08-09 22:17:00,
2013-08-09 15:32:00,97.8,41.0,29.59,West,261,7.0,11.0,14,0.00,,,0.00,weatherlink.com 1.10,2013-08-09 22:32:00,
2013-08-09 15:47:00,98.1,43.0,29.59,South,172,1.0,15.0,15,0.00,,,0.00,weatherlink.com 1.10,2013-08-09 22:47:00,
2013-08-09 16:02:00,97.6,43.0,29.59,SSW,207,6.0,13.0,15,0.00,,,0.00,weatherlink.com 1.10,2013-08-09 23:02:00,
2013-08-09 16:17:00,96.6,42.0,29.59,SW,217,8.0,12.0,15,0.00,,,0.00,weatherlink.com 1.10,2013-08-09 23:17:00,
2013-08-09 16:32:00,97.1,44.0,29.58,SSE,150,3.0,11.0,16,0.00,,,0.00,weatherlink.com 1.10,2013-08-09 23:32:00,
2013-08-09 16:47:00,96.7,40.0,29.59,SSW,205,7.0,12.0,14,0.00,,,0.00,weatherlink.com 1.10,2013-08-09 23:47:00,
2013-08-09 17:02:00,95.9,41.0,29.59,SSW,193,6.0,10.0,15,0.00,,,0.00,weatherlink.com 1.10,2013-08-10 00:02:00,
2013-08-09 17:17:00,94.2,40.0,29.59,SW,234,4.0,16.0,15,0.00,,,0.00,weatherlink.com 1.10,2013-08-10 00:17:00,
2013-08-09 17:32:00,92.9,39.0,29.59,NW,313,4.0,13.0,15,0.00,,,0.00,weatherlink.com 1.10,2013-08-10 00:32:00,
2013-08-09 17:47:00,93.8,43.0,29.58,SSW,207,9.0,10.0,17,0.00,,,0.00,weatherlink.com 1.10,2013-08-10 00:47:00,
2013-08-09 18:02:00,93.0,41.0,29.59,WSW,251,3.0,9.0,16,0.00,,,0.00,weatherlink.com 1.10,2013-08-10 01:02:00,
2013-08-09 18:17:00,91.2,39.0,29.59,SW,225,2.0,8.0,16,0.00,,,0.00,weatherlink.com 1.10,2013-08-10 01:17:00,
2013-08-09 18:32:00,89.6,41.0,29.59,SW,236,2.0,7.0,18,0.00,,,0.00,weatherlink.com 1.10,2013-08-10 01:32:00,
2013-08-09 18:47:00,88.4,40.0,29.59,SW,215,0.0,7.0,18,0.00,,,0.00,weatherlink.com 1.10,2013-08-10 01:47:00,
2013-08-09 19:02:00,86.6,48.0,29.59,SSW,213,1.0,2.0,26,0.00,,,0.00,weatherlink.com 1.10,2013-08-10 02:02:00,
2013-08-09 19:17:00,83.4,48.0,29.59,SSW,213,0.0,0.0,29,0.00,,,0.00,weatherlink.com 1.10,2013-08-10 02:17:00,
2013-08-09 19:32:00,80.7,49.0,29.59,SSW,213,0.0,1.0,33,0.00,,,0.00,weatherlink.com 1.10,2013-08-10 02:32:00,
2013-08-09 19:47:00,78.4,52.0,29.59,SSW,213,0.0,0.0,40,0.00,,,0.00,weatherlink.com 1.10,2013-08-10 02:47:00,
2013-08-09 20:02:00,76.1,52.0,29.60,SSW,213,0.0,0.0,43,0.00,,,0.00,weatherlink.com 1.10,2013-08-10 03:02:00,
2013-08-09 20:17:00,73.9,51.0,29.60,SSW,213,0.0,1.0,45,0.00,,,0.00,weatherlink.com 1.10,2013-08-10 03:17:00,
2013-08-09 20:32:00,72.6,51.0,29.61,WSW,254,0.0,4.0,47,0.00,,,0.00,weatherlink.com 1.10,2013-08-10 03:32:00,
2013-08-09 20:47:00,71.6,52.0,29.61,WSW,254,0.0,1.0,50,0.00,,,0.00,weatherlink.com 1.10,2013-08-10 03:47:00,
2013-08-09 21:02:00,70.7,52.0,29.62,WSW,254,1.0,2.0,51,0.00,,,0.00,weatherlink.com 1.10,2013-08-10 04:02:00,
2013-08-09 21:17:00,70.9,51.0,29.62,West,263,0.0,3.0,49,0.00,,,0.00,weatherlink.com 1.10,2013-08-10 04:17:00,
2013-08-09 21:32:00,70.5,52.0,29.63,West,263,0.0,0.0,52,0.00,,,0.00,weatherlink.com 1.10,2013-08-10 04:32:00,
2013-08-09 21:47:00,69.4,50.0,29.63,West,263,0.0,0.0,50,0.00,,,0.00,weatherlink.com 1.10,2013-08-10 04:47:00,
2013-08-09 22:02:00,68.3,48.0,29.64,West,263,0.0,1.0,48,0.00,,,0.00,weatherlink.com 1.10,2013-08-10 05:02:00,
2013-08-09 22:17:00,67.8,52.0,29.64,West,263,0.0,2.0,58,0.00,,,0.00,weatherlink.com 1.10,2013-08-10 05:17:00,
2013-08-09 22:32:00,67.5,53.0,29.64,West,269,0.0,2.0,60,0.00,,,0.00,weatherlink.com 1.10,2013-08-10 05:32:00,
2013-08-09 22:47:00,67.1,53.0,29.64,West,269,0.0,0.0,60,0.00,,,0.00,weatherlink.com 1.10,2013-08-10 05:47:00,
2013-08-09 23:02:00,66.7,53.0,29.65,West,269,0.0,1.0,61,0.00,,,0.00,weatherlink.com 1.10,2013-08-10 06:02:00,
2013-08-09 23:17:00,66.0,52.0,29.65,West,269,0.0,1.0,62,0.00,,,0.00,weatherlink.com 1.10,2013-08-10 06:17:00,
2013-08-09 23:32:00,65.3,53.0,29.66,West,269,0.0,1.0,65,0.00,,,0.00,weatherlink.com 1.10,2013-08-10 06:32:00,
2013-08-09 23:47:00,64.4,54.0,29.66,West,269,0.0,1.0,69,0.00,,,0.00,weatherlink.com 1.10,2013-08-10 06:47:00,